Time;durP1;ratioP1;P1;durP2;ratioP2;P2;SDS_P1;SDS_P2;PMS_P1;PMS_P2;Temp;Humidity;BMP_temperature;BMP_pressure;BME280_temperature;BME280_humidity;BME280_pressure;Samples;Min_cycle;Max_cycle;Signal;HPM_P1;HPM_P2
2023/09/17 00:00:38;;;;;;;16.70;7.45;;;23.00;99.90;;;;;;7402389;19;19914;-71
2023/09/17 00:03:05;;;;;;;21.85;7.35;;;23.00;99.90;;;;;;7402834;19;19915;-71
2023/09/17 00:05:34;;;;;;;19.90;7.57;;;22.90;99.90;;;;;;7404351;19;19938;-71
2023/09/17 00:08:00;;;;;;;14.68;7.85;;;22.90;99.90;;;;;;7402599;19;19926;-70
2023/09/17 00:10:27;;;;;;;15.75;7.35;;;22.90;99.90;;;;;;7404045;19;19937;-70
2023/09/17 00:12:55;;;;;;;17.48;7.80;;;22.90;99.90;;;;;;7402471;19;19918;-70
2023/09/17 00:15:21;;;;;;;16.33;6.90;;;22.90;99.90;;;;;;7403715;19;19919;-70
2023/09/17 00:17:48;;;;;;;18.13;7.75;;;22.80;99.90;;;;;;7402271;19;19978;-72
2023/09/17 00:20:14;;;;;;;15.35;7.40;;;22.80;99.90;;;;;;7400741;19;19919;-70
2023/09/17 00:22:40;;;;;;;;;;;22.80;99.90;;;;;;7405096;19;20305;-70
2023/09/17 00:25:06;;;;;;;17.27;7.72;;;22.80;99.90;;;;;;7401504;19;19922;-71
2023/09/17 00:27:33;;;;;;;20.40;7.57;;;22.80;99.90;;;;;;7399205;19;19921;-70
2023/09/17 00:29:59;;;;;;;15.80;7.70;;;22.80;99.90;;;;;;7403112;19;19914;-71
2023/09/17 00:32:25;;;;;;;16.08;7.68;;;22.80;99.90;;;;;;7403755;19;19914;-70
2023/09/17 00:34:51;;;;;;;18.73;7.45;;;22.80;99.90;;;;;;7402267;19;19929;-71
2023/09/17 00:37:17;;;;;;;19.35;8.18;;;22.70;99.90;;;;;;7400140;19;19929;-70
2023/09/17 00:39:43;;;;;;;19.00;7.10;;;22.70;99.90;;;;;;7400840;19;20706;-69
2023/09/17 00:42:09;;;;;;;14.10;7.47;;;22.70;99.90;;;;;;7402919;19;19911;-70
2023/09/17 00:44:35;;;;;;;13.80;8.23;;;22.70;99.90;;;;;;7401427;19;19934;-69
2023/09/17 00:47:04;;;;;;;13.00;7.97;;;22.70;99.90;;;;;;7398509;19;19918;-70
2023/09/17 00:49:32;;;;;;;18.13;7.82;;;22.70;99.90;;;;;;7403290;19;19933;-69
2023/09/17 00:51:58;;;;;;;15.48;8.32;;;22.70;99.90;;;;;;7402598;19;19926;-69
2023/09/17 00:54:27;;;;;;;19.25;8.32;;;22.70;99.90;;;;;;7402654;19;19923;-70
2023/09/17 00:56:53;;;;;;;20.98;7.97;;;22.70;99.90;;;;;;7403304;19;19928;-70
2023/09/17 00:59:19;;;;;;;18.00;7.90;;;22.70;99.90;;;;;;7400459;19;19982;-70
2023/09/17 01:01:45;;;;;;;15.95;7.40;;;22.70;99.90;;;;;;7402008;19;19990;-69
2023/09/17 01:04:16;;;;;;;15.00;7.63;;;22.70;99.90;;;;;;7402028;19;19926;-70
2023/09/17 01:06:43;;;;;;;14.85;8.50;;;22.70;99.90;;;;;;7400740;19;19918;-70
2023/09/17 01:09:11;;;;;;;15.93;7.15;;;22.60;99.90;;;;;;7400405;19;19918;-70
2023/09/17 01:11:37;;;;;;;15.18;7.47;;;22.70;99.90;;;;;;7400369;19;20592;-70
2023/09/17 01:14:12;;;;;;;14.25;7.40;;;22.70;99.90;;;;;;7402585;19;19925;-69
2023/09/17 01:16:45;;;;;;;17.73;7.78;;;22.60;99.90;;;;;;7401300;19;19919;-71
2023/09/17 01:19:29;;;;;;;16.20;8.27;;;22.60;99.90;;;;;;7399530;19;19918;-70
2023/09/17 01:22:06;;;;;;;14.45;7.40;;;22.60;99.90;;;;;;7394588;19;19914;-70
2023/09/17 01:25:00;;;;;;;16.35;7.97;;;22.60;99.90;;;;;;7394484;19;19922;-71
2023/09/17 01:27:27;;;;;;;15.32;6.88;;;22.50;99.90;;;;;;7397792;19;19930;-70
2023/09/17 01:29:53;;;;;;;15.02;7.72;;;22.50;99.90;;;;;;7401412;19;19934;-70
2023/09/17 01:32:20;;;;;;;16.92;8.80;;;22.50;99.90;;;;;;7400722;19;19923;-69
2023/09/17 01:34:52;;;;;;;13.93;6.53;;;22.50;99.90;;;;;;7400954;19;19921;-69
2023/09/17 01:37:33;;;;;;;13.77;6.68;;;22.50;99.90;;;;;;7399301;19;19927;-70
2023/09/17 01:40:05;;;;;;;15.82;6.50;;;22.60;99.90;;;;;;7406632;19;19944;-70
2023/09/17 01:42:32;;;;;;;19.40;6.03;;;22.70;99.90;;;;;;7408380;19;20337;-69
2023/09/17 01:45:00;;;;;;;17.25;6.82;;;22.70;99.90;;;;;;7407207;19;19923;-70
2023/09/17 01:47:27;;;;;;;17.55;6.05;;;22.80;99.90;;;;;;7407574;19;19996;-70
2023/09/17 01:49:57;;;;;;;17.52;5.78;;;22.80;99.90;;;;;;7406892;19;19931;-70
2023/09/17 01:52:32;;;;;;;21.63;6.75;;;22.80;99.90;;;;;;7405092;19;19925;-70
2023/09/17 01:55:00;;;;;;;18.42;6.07;;;22.80;99.90;;;;;;7405857;19;19930;-69
2023/09/17 01:57:26;;;;;;;17.38;6.47;;;22.80;99.90;;;;;;7405199;19;19923;-71
2023/09/17 01:59:51;;;;;;;16.42;6.18;;;22.80;99.90;;;;;;7398515;19;20496;-70
2023/09/17 02:02:18;;;;;;;18.70;7.03;;;22.80;99.90;;;;;;7400124;19;20010;-71
2023/09/17 02:04:43;;;;;;;;;;;22.80;99.90;;;;;;7404759;19;20377;-70
2023/09/17 02:07:09;;;;;;;15.23;6.18;;;22.80;99.90;;;;;;7397804;19;19926;-70
2023/09/17 02:09:35;;;;;;;19.08;6.45;;;22.80;99.90;;;;;;7396080;19;20825;-69
2023/09/17 02:12:01;;;;;;;19.95;5.90;;;22.70;99.90;;;;;;7403909;19;20331;-71
2023/09/17 02:14:27;;;;;;;22.42;6.95;;;22.70;99.90;;;;;;7403207;19;19990;-71
2023/09/17 02:16:54;;;;;;;20.08;6.53;;;22.70;99.90;;;;;;7401969;19;19951;-70
2023/09/17 02:19:20;;;;;;;18.85;6.45;;;22.70;99.90;;;;;;7401927;19;19918;-69
2023/09/17 02:21:46;;;;;;;18.42;6.53;;;22.70;99.90;;;;;;7401001;19;19918;-71
2023/09/17 02:24:13;;;;;;;19.95;5.97;;;22.70;99.90;;;;;;7402765;19;19927;-70
2023/09/17 02:26:39;;;;;;;22.90;6.45;;;22.80;99.90;;;;;;7404668;19;19914;-69
2023/09/17 02:29:06;;;;;;;23.45;6.68;;;22.80;99.90;;;;;;7403456;19;19917;-70
2023/09/17 02:31:32;;;;;;;19.65;7.78;;;22.80;99.90;;;;;;7399716;19;19915;-70
2023/09/17 02:33:59;;;;;;;24.48;6.18;;;22.70;99.90;;;;;;7401578;19;19922;-70
2023/09/17 02:36:24;;;;;;;17.60;6.97;;;22.70;99.90;;;;;;7403398;19;20007;-70
2023/09/17 02:38:50;;;;;;;18.27;5.45;;;22.70;99.90;;;;;;7402031;19;20413;-70
2023/09/17 02:41:16;;;;;;;19.30;6.57;;;22.60;99.90;;;;;;7401962;19;19924;-71
2023/09/17 02:43:42;;;;;;;23.33;6.60;;;22.60;99.90;;;;;;7403466;19;19922;-70
2023/09/17 02:46:08;;;;;;;16.30;6.35;;;22.60;99.90;;;;;;7397458;19;19921;-69
2023/09/17 02:48:34;;;;;;;17.52;6.90;;;22.60;99.90;;;;;;7400913;19;19914;-70
2023/09/17 02:51:02;;;;;;;20.75;6.80;;;22.50;99.90;;;;;;7401229;19;20062;-69
2023/09/17 02:53:28;;;;;;;19.13;7.55;;;22.50;99.90;;;;;;7403715;19;19944;-71
2023/09/17 02:55:54;;;;;;;19.52;7.55;;;22.50;99.90;;;;;;7402366;19;19914;-70
2023/09/17 02:58:20;;;;;;;18.75;6.15;;;22.50;99.90;;;;;;7405127;19;19928;-70
2023/09/17 03:00:46;;;;;;;20.98;6.90;;;22.50;99.90;;;;;;7401808;19;19923;-70
2023/09/17 03:03:13;;;;;;;18.38;6.85;;;22.60;99.90;;;;;;7403325;19;19938;-70
2023/09/17 03:05:38;;;;;;;;;;;22.60;99.90;;;;;;7399994;19;19915;-71
2023/09/17 03:08:09;;;;;;;15.55;6.53;;;22.60;99.90;;;;;;7404286;19;19906;-70
2023/09/17 03:10:42;;;;;;;15.55;5.72;;;22.60;99.90;;;;;;7402609;19;20286;-70
2023/09/17 03:13:14;;;;;;;18.40;6.55;;;22.60;99.90;;;;;;7402486;19;19933;-70
2023/09/17 03:15:40;;;;;;;16.25;6.30;;;22.60;99.90;;;;;;7404234;19;19926;-70
2023/09/17 03:18:06;;;;;;;19.83;6.68;;;22.60;99.90;;;;;;7404010;19;19938;-71
2023/09/17 03:20:35;;;;;;;16.85;5.90;;;22.60;99.90;;;;;;7405469;19;19918;-71
2023/09/17 03:23:04;;;;;;;15.75;5.82;;;22.60;99.90;;;;;;7399424;19;19919;-71
2023/09/17 03:25:33;;;;;;;14.98;6.22;;;22.60;99.90;;;;;;7401954;19;19922;-71
2023/09/17 03:27:59;;;;;;;18.05;6.03;;;22.60;99.90;;;;;;7401974;19;19946;-70
2023/09/17 03:30:26;;;;;;;16.58;6.50;;;22.60;99.90;;;;;;7405805;19;19946;-71
2023/09/17 03:32:52;;;;;;;14.45;5.65;;;22.60;99.90;;;;;;7403439;19;19922;-71
2023/09/17 03:35:18;;;;;;;18.23;6.22;;;22.60;99.90;;;;;;7403007;19;19914;-71
2023/09/17 03:37:45;;;;;;;17.55;6.05;;;22.60;99.90;;;;;;7402827;19;20282;-71
2023/09/17 03:40:12;;;;;;;16.70;6.53;;;22.60;99.90;;;;;;7402402;19;20242;-71
2023/09/17 03:42:39;;;;;;;16.65;5.68;;;22.70;99.90;;;;;;7401901;19;19918;-71
2023/09/17 03:45:09;;;;;;;16.52;6.35;;;22.70;99.90;;;;;;7404628;19;20258;-71
2023/09/17 03:47:39;;;;;;;20.48;6.20;;;22.70;99.90;;;;;;7402672;19;19926;-70
2023/09/17 03:50:08;;;;;;;17.52;5.78;;;22.70;99.90;;;;;;7404270;19;19922;-70
2023/09/17 03:52:35;;;;;;;15.27;5.80;;;22.70;99.90;;;;;;7402840;19;19910;-71
2023/09/17 03:55:05;;;;;;;21.45;5.88;;;22.70;99.90;;;;;;7402536;19;19918;-71
2023/09/17 03:57:32;;;;;;;16.33;5.55;;;22.80;99.50;;;;;;7400729;19;19914;-71
2023/09/17 03:59:57;;;;;;;19.88;5.90;;;22.80;98.60;;;;;;7400867;19;19960;-71
2023/09/17 04:02:25;;;;;;;20.58;5.93;;;22.90;98.10;;;;;;7398483;19;20299;-71
2023/09/17 04:04:51;;;;;;;16.95;5.82;;;22.90;97.80;;;;;;7395828;19;19921;-69
2023/09/17 04:07:17;;;;;;;20.52;5.85;;;22.80;97.80;;;;;;7396566;19;20414;-71
2023/09/17 04:09:43;;;;;;;15.38;6.03;;;22.80;97.60;;;;;;7401367;19;19910;-70
2023/09/17 04:12:09;;;;;;;18.73;6.55;;;22.80;97.40;;;;;;7399657;19;19975;-70
2023/09/17 04:14:34;;;;;;;17.48;6.05;;;22.80;97.20;;;;;;7400773;19;19994;-71
2023/09/17 04:17:02;;;;;;;16.48;6.38;;;22.80;97.20;;;;;;7398617;19;19952;-70
2023/09/17 04:19:29;;;;;;;16.83;5.28;;;22.80;97.10;;;;;;7399227;19;19939;-70
2023/09/17 04:21:56;;;;;;;20.35;6.85;;;22.80;97.30;;;;;;7397638;19;19989;-71
2023/09/17 04:24:21;;;;;;;19.92;6.43;;;22.80;97.20;;;;;;7403061;19;19931;-71
2023/09/17 04:26:48;;;;;;;16.08;5.85;;;22.80;97.00;;;;;;7399584;19;19930;-72
2023/09/17 04:29:14;;;;;;;17.42;5.40;;;22.80;96.80;;;;;;7398723;19;19915;-71
2023/09/17 04:31:40;;;;;;;16.85;5.95;;;22.70;96.90;;;;;;7401978;19;19926;-70
2023/09/17 04:34:06;;;;;;;19.77;6.40;;;22.80;97.00;;;;;;7399160;19;19922;-70
2023/09/17 04:36:31;;;;;;;21.60;5.85;;;22.70;97.10;;;;;;7400024;19;19926;-70
2023/09/17 04:38:57;;;;;;;19.08;5.90;;;22.70;97.20;;;;;;7395604;19;19922;-70
2023/09/17 04:41:23;;;;;;;20.70;6.30;;;22.70;97.10;;;;;;7397282;19;19957;-71
2023/09/17 04:43:49;;;;;;;14.30;6.25;;;22.60;97.20;;;;;;7390870;19;19915;-71
2023/09/17 04:46:16;;;;;;;19.60;6.63;;;22.60;97.40;;;;;;7398550;19;19922;-72
2023/09/17 04:48:41;;;;;;;16.17;5.82;;;22.50;97.70;;;;;;7399790;19;19915;-71
2023/09/17 04:51:07;;;;;;;16.05;6.10;;;22.50;97.90;;;;;;7397539;19;19933;-71
2023/09/17 04:53:33;;;;;;;17.90;6.47;;;22.40;98.10;;;;;;7402823;19;19918;-71
2023/09/17 04:56:01;;;;;;;17.30;5.97;;;22.40;97.80;;;;;;7395251;19;19990;-71
2023/09/17 04:58:26;;;;;;;13.82;4.65;;;22.40;97.80;;;;;;7393788;19;20274;-70
2023/09/17 05:00:55;;;;;;;18.83;6.28;;;22.40;97.60;;;;;;7396980;19;20152;-70
2023/09/17 05:03:21;;;;;;;21.00;6.40;;;22.40;97.40;;;;;;7396987;19;19918;-70
2023/09/17 05:05:49;;;;;;;25.17;5.90;;;22.40;96.90;;;;;;7399544;19;19922;-71
2023/09/17 05:08:18;;;;;;;22.35;5.95;;;22.50;96.30;;;;;;7399708;19;19923;-71
2023/09/17 05:10:44;;;;;;;21.77;6.25;;;22.50;95.90;;;;;;7399904;19;19922;-70
2023/09/17 05:13:10;;;;;;;21.10;6.40;;;22.40;95.90;;;;;;7398712;19;19914;-71
2023/09/17 05:15:37;;;;;;;24.90;5.60;;;22.40;95.80;;;;;;7403366;19;20755;-71
2023/09/17 05:18:09;;;;;;;29.80;5.68;;;22.40;95.40;;;;;;7408216;19;19935;-69
2023/09/17 05:20:38;;;;;;;25.30;5.55;;;22.40;95.20;;;;;;7400567;19;19917;-71
2023/09/17 05:23:04;;;;;;;26.20;6.57;;;22.40;95.20;;;;;;7401348;19;19949;-70
2023/09/17 05:25:31;;;;;;;31.58;5.65;;;22.50;94.50;;;;;;7404179;19;20390;-70
2023/09/17 05:27:57;;;;;;;33.17;7.80;;;22.50;94.00;;;;;;7404375;19;20405;-70
2023/09/17 05:30:23;;;;;;;35.83;10.25;;;22.50;93.90;;;;;;7406820;19;19939;-71
2023/09/17 05:32:48;;;;;;;26.88;6.72;;;22.50;93.60;;;;;;7405258;19;19942;-70
2023/09/17 05:35:14;;;;;;;35.13;7.20;;;22.50;93.30;;;;;;7402150;19;20008;-71
2023/09/17 05:37:40;;;;;;;30.65;6.82;;;22.50;93.00;;;;;;7402209;19;19918;-71
2023/09/17 05:40:07;;;;;;;30.02;6.10;;;22.60;92.80;;;;;;7402222;19;19923;-71
2023/09/17 05:42:33;;;;;;;34.45;6.32;;;22.60;92.60;;;;;;7405315;19;20269;-71
2023/09/17 05:44:59;;;;;;;42.35;7.25;;;22.60;92.60;;;;;;7393601;19;19929;-70
2023/09/17 05:47:25;;;;;;;38.08;7.38;;;22.50;92.70;;;;;;7405431;19;19945;-70
2023/09/17 05:49:50;;;;;;;43.10;7.00;;;22.50;92.40;;;;;;7407232;19;19911;-70
2023/09/17 05:52:18;;;;;;;29.70;6.60;;;22.60;92.20;;;;;;7405474;19;19932;-71
2023/09/17 05:54:43;;;;;;;30.13;6.80;;;22.70;91.60;;;;;;7402481;19;19918;-70
2023/09/17 05:57:09;;;;;;;32.20;7.00;;;22.70;91.50;;;;;;7398334;19;19915;-71
2023/09/17 05:59:38;;;;;;;36.35;7.20;;;22.70;91.50;;;;;;7404302;19;19935;-72
2023/09/17 06:02:03;;;;;;;33.38;7.28;;;22.70;91.30;;;;;;7403030;19;19937;-73
2023/09/17 06:04:29;;;;;;;32.75;6.47;;;22.70;91.30;;;;;;7405189;19;19914;-71
2023/09/17 06:06:55;;;;;;;41.17;6.65;;;22.80;91.20;;;;;;7401458;19;19915;-71
2023/09/17 06:09:21;;;;;;;34.13;7.72;;;22.80;91.10;;;;;;7403475;19;19911;-71
2023/09/17 06:11:48;;;;;;;30.63;6.97;;;22.80;90.90;;;;;;7405529;19;20347;-71
2023/09/17 06:14:14;;;;;;;34.97;7.45;;;22.90;90.70;;;;;;7402453;19;19923;-71
2023/09/17 06:16:40;;;;;;;30.55;6.78;;;22.90;90.70;;;;;;7403707;19;19942;-71
2023/09/17 06:19:05;;;;;;;32.92;6.90;;;22.90;90.50;;;;;;7403706;19;19922;-70
2023/09/17 06:21:32;;;;;;;32.20;7.10;;;22.90;90.60;;;;;;7400688;19;19944;-71
2023/09/17 06:23:58;;;;;;;31.90;6.18;;;23.00;90.70;;;;;;7402048;19;20298;-71
2023/09/17 06:26:24;;;;;;;29.45;6.63;;;23.00;90.50;;;;;;7401049;19;19946;-73
2023/09/17 06:28:50;;;;;;;33.08;7.07;;;23.10;90.50;;;;;;7405036;19;19927;-71
2023/09/17 06:31:16;;;;;;;28.45;6.80;;;23.10;90.30;;;;;;7403070;19;19953;-71
2023/09/17 06:33:42;;;;;;;27.80;5.93;;;23.10;90.30;;;;;;7402751;19;19922;-71
2023/09/17 06:36:08;;;;;;;31.23;7.25;;;23.10;90.40;;;;;;7401410;19;19915;-70
2023/09/17 06:38:34;;;;;;;29.65;5.95;;;23.00;90.50;;;;;;7402957;19;19923;-71
2023/09/17 06:41:00;;;;;;;27.38;6.13;;;23.00;90.70;;;;;;7400501;19;20013;-71
2023/09/17 06:43:26;;;;;;;30.40;6.70;;;22.90;91.00;;;;;;7402719;19;19922;-71
2023/09/17 06:45:52;;;;;;;24.77;7.00;;;22.90;90.90;;;;;;7401185;19;19928;-70
2023/09/17 06:48:18;;;;;;;32.42;6.15;;;22.90;90.80;;;;;;7401506;19;19980;-71
2023/09/17 06:50:43;;;;;;;33.05;6.72;;;23.00;90.80;;;;;;7404087;19;19922;-71
2023/09/17 06:53:09;;;;;;;28.20;6.60;;;23.00;90.60;;;;;;7403082;19;19910;-71
2023/09/17 06:55:35;;;;;;;35.35;7.22;;;23.10;90.10;;;;;;7403146;19;20359;-71
2023/09/17 06:58:01;;;;;;;28.17;7.47;;;23.20;89.80;;;;;;7403676;19;20347;-72
2023/09/17 07:00:26;;;;;;;30.02;7.78;;;23.40;89.30;;;;;;7402357;19;19918;-70
2023/09/17 07:02:52;;;;;;;24.67;6.05;;;23.50;88.40;;;;;;7402251;19;19922;-70
2023/09/17 07:05:18;;;;;;;23.35;6.35;;;23.50;88.10;;;;;;7400575;19;19942;-71
2023/09/17 07:07:44;;;;;;;31.48;7.20;;;23.70;87.20;;;;;;7402529;19;19915;-70
2023/09/17 07:10:10;;;;;;;25.70;6.60;;;23.80;86.60;;;;;;7404788;19;19927;-70
2023/09/17 07:12:38;;;;;;;25.38;7.07;;;23.90;85.50;;;;;;7400558;19;19922;-69
2023/09/17 07:15:10;;;;;;;30.00;6.22;;;23.90;84.90;;;;;;7404863;19;19922;-70
2023/09/17 07:17:36;;;;;;;22.90;5.78;;;24.00;83.60;;;;;;7399717;19;19919;-70
2023/09/17 07:20:04;;;;;;;28.83;6.28;;;24.10;82.80;;;;;;7401875;19;19918;-71
2023/09/17 07:22:30;;;;;;;25.48;6.03;;;24.20;81.70;;;;;;7400219;19;19978;-70
2023/09/17 07:24:58;;;;;;;25.90;6.25;;;24.30;81.10;;;;;;7401424;19;19956;-70
2023/09/17 07:27:29;;;;;;;21.42;6.18;;;24.30;80.30;;;;;;7398496;19;19929;-70
2023/09/17 07:29:56;;;;;;;21.98;6.13;;;24.40;79.90;;;;;;7401732;19;19922;-71
2023/09/17 07:32:25;;;;;;;19.25;6.78;;;24.40;79.70;;;;;;7400995;19;19922;-71
2023/09/17 07:34:51;;;;;;;22.88;5.60;;;24.30;78.90;;;;;;7405132;19;19934;-71
2023/09/17 07:37:18;;;;;;;26.38;6.93;;;24.30;79.40;;;;;;7398183;19;19941;-71
2023/09/17 07:39:46;;;;;;;23.90;5.90;;;24.30;79.20;;;;;;7401283;19;19950;-71
2023/09/17 07:42:13;;;;;;;23.50;5.70;;;24.30;78.60;;;;;;7403256;19;19967;-70
2023/09/17 07:44:39;;;;;;;22.88;6.72;;;24.30;79.10;;;;;;7402315;19;19925;-71
2023/09/17 07:47:06;;;;;;;;;;;24.30;79.20;;;;;;7399132;19;19947;-71
2023/09/17 07:49:32;;;;;;;21.40;5.55;;;24.20;79.10;;;;;;7398570;19;19914;-72
2023/09/17 07:51:58;;;;;;;19.02;5.60;;;24.20;79.50;;;;;;7402634;19;19919;-71
2023/09/17 07:54:25;;;;;;;42.70;19.67;;;24.30;79.70;;;;;;7401058;19;19978;-71
2023/09/17 07:56:50;;;;;;;21.90;6.20;;;24.30;80.00;;;;;;7402292;19;20363;-71
2023/09/17 07:59:16;;;;;;;21.33;5.95;;;24.40;80.60;;;;;;7398650;19;19938;-71
2023/09/17 08:01:42;;;;;;;23.13;5.80;;;24.50;81.10;;;;;;7401075;19;19910;-70
2023/09/17 08:04:09;;;;;;;26.10;6.47;;;24.60;80.50;;;;;;7403317;19;19922;-70
2023/09/17 08:06:35;;;;;;;27.38;5.90;;;24.70;80.20;;;;;;7401092;19;19923;-71
2023/09/17 08:09:01;;;;;;;24.50;5.97;;;24.80;79.80;;;;;;7398025;19;20384;-70
2023/09/17 08:11:29;;;;;;;30.35;6.03;;;24.80;79.70;;;;;;7399136;19;20477;-71
2023/09/17 08:13:55;;;;;;;20.38;5.85;;;24.90;79.00;;;;;;7401600;19;19922;-70
2023/09/17 08:16:23;;;;;;;27.60;6.13;;;25.00;77.90;;;;;;7401164;19;19930;-70
2023/09/17 08:18:49;;;;;;;27.25;5.65;;;25.00;77.00;;;;;;7400743;19;19926;-71
2023/09/17 08:21:15;;;;;;;27.73;5.72;;;25.00;75.90;;;;;;7398137;19;19919;-71
2023/09/17 08:23:41;;;;;;;25.50;6.15;;;25.00;75.50;;;;;;7399017;19;20379;-71
2023/09/17 08:26:08;;;;;;;21.60;5.00;;;25.20;74.90;;;;;;7398716;19;19911;-71
2023/09/17 08:28:34;;;;;;;26.95;5.63;;;25.30;72.50;;;;;;7397719;19;19954;-71
2023/09/17 08:31:00;;;;;;;22.70;5.22;;;25.50;71.40;;;;;;7401034;19;20373;-70
2023/09/17 08:33:26;;;;;;;20.90;5.53;;;25.70;71.00;;;;;;7402834;19;19930;-71
2023/09/17 08:35:52;;;;;;;21.52;5.95;;;25.70;70.80;;;;;;7393516;19;20709;-70
2023/09/17 08:38:18;;;;;;;23.00;5.88;;;25.60;72.50;;;;;;7393734;19;19915;-70
2023/09/17 08:40:45;;;;;;;30.25;7.18;;;25.60;73.60;;;;;;7397763;19;19911;-71
2023/09/17 08:43:11;;;;;;;25.65;5.72;;;26.70;75.20;;;;;;7396506;19;19919;-71
2023/09/17 08:45:36;;;;;;;;;;;27.10;73.60;;;;;;7400682;19;19914;-72
2023/09/17 08:48:02;;;;;;;26.15;7.25;;;28.00;70.60;;;;;;7398594;19;19922;-72
2023/09/17 08:50:31;;;;;;;27.17;6.43;;;28.90;68.50;;;;;;7406717;19;19953;-71
2023/09/17 08:53:02;;;;;;;24.25;7.00;;;30.00;66.50;;;;;;7402192;19;20466;-71
2023/09/17 08:55:29;;;;;;;22.55;7.53;;;29.70;64.20;;;;;;7406621;19;20362;-70
2023/09/17 08:58:07;;;;;;;31.48;13.52;;;28.80;67.90;;;;;;7403830;19;19922;-70
2023/09/17 09:00:35;;;;;;;;;;;28.70;70.20;;;;;;7408524;19;19922;-71
2023/09/17 09:03:03;;;;;;;24.77;8.18;;;29.40;69.90;;;;;;7405943;19;19968;-71
2023/09/17 09:05:31;;;;;;;21.58;7.32;;;30.90;65.30;;;;;;7405003;19;19910;-71
2023/09/17 09:07:57;;;;;;;25.83;8.45;;;31.70;59.90;;;;;;7406970;19;19953;-71
2023/09/17 09:10:24;;;;;;;;;;;32.30;58.30;;;;;;7384834;19;19915;-71
2023/09/17 09:12:50;;;;;;;21.35;7.82;;;31.70;59.50;;;;;;7390710;19;19922;-70
2023/09/17 09:15:16;;;;;;;25.35;7.93;;;31.50;60.70;;;;;;7394814;19;19922;-72
2023/09/17 09:17:42;;;;;;;;;;;32.20;58.80;;;;;;7392847;19;20323;-75
2023/09/17 09:20:10;;;;;;;26.45;7.78;;;32.70;56.40;;;;;;7388198;19;19918;-72
2023/09/17 09:22:37;;;;;;;20.30;7.32;;;32.50;57.10;;;;;;7397853;19;19930;-72
2023/09/17 09:25:06;;;;;;;22.88;7.85;;;32.20;58.50;;;;;;7393885;19;19922;-73
2023/09/17 09:27:32;;;;;;;22.90;8.73;;;31.80;58.50;;;;;;7407408;19;19943;-72
2023/09/17 09:29:58;;;;;;;20.85;8.00;;;31.00;60.50;;;;;;7400333;19;19915;-70
2023/09/17 09:32:24;;;;;;;;;;;30.70;63.30;;;;;;7396316;19;19929;-71
2023/09/17 09:34:51;;;;;;;23.58;8.50;;;31.40;61.50;;;;;;7399181;19;19947;-71
2023/09/17 09:37:23;;;;;;;23.05;7.68;;;31.90;60.90;;;;;;7393788;19;19919;-72
2023/09/17 09:39:49;;;;;;;21.08;8.52;;;32.80;57.70;;;;;;7400315;19;19930;-71
2023/09/17 09:42:15;;;;;;;25.35;7.75;;;32.90;56.10;;;;;;7387553;19;20657;-71
2023/09/17 09:44:40;;;;;;;;;;;32.30;56.80;;;;;;7407366;19;19921;-72
2023/09/17 09:47:07;;;;;;;22.70;8.10;;;31.60;58.60;;;;;;7389626;19;19930;-71
2023/09/17 09:49:41;;;;;;;22.65;7.28;;;31.70;58.70;;;;;;7402943;19;20402;-72
2023/09/17 09:52:07;;;;;;;21.35;7.05;;;31.90;59.20;;;;;;7399754;19;19914;-72
2023/09/17 09:54:33;;;;;;;25.67;7.82;;;31.90;58.90;;;;;;7394284;19;19938;-71
2023/09/17 09:57:00;;;;;;;28.20;8.35;;;31.90;58.90;;;;;;7403978;19;19918;-71
2023/09/17 09:59:26;;;;;;;28.63;7.13;;;31.70;59.40;;;;;;7396946;19;20263;-71
2023/09/17 10:01:53;;;;;;;;;;;31.40;60.00;;;;;;7404602;19;19911;-71
2023/09/17 10:04:19;;;;;;;26.00;7.00;;;31.30;60.50;;;;;;7396706;19;19918;-72
2023/09/17 10:06:46;;;;;;;24.75;7.80;;;31.30;61.10;;;;;;7390421;19;19910;-70
2023/09/17 10:09:14;;;;;;;20.30;8.00;;;31.40;61.40;;;;;;7399741;19;19915;-71
2023/09/17 10:11:40;;;;;;;26.98;7.82;;;31.40;61.00;;;;;;7393009;19;19926;-71
2023/09/17 10:14:07;;;;;;;26.15;8.00;;;31.50;60.70;;;;;;7401407;19;19911;-71
2023/09/17 10:16:36;;;;;;;22.23;6.63;;;31.40;60.90;;;;;;7392862;19;19922;-71
2023/09/17 10:19:04;;;;;;;24.10;8.27;;;31.40;61.10;;;;;;7393045;19;19922;-71
2023/09/17 10:21:32;;;;;;;26.33;8.88;;;31.60;60.70;;;;;;7399135;19;19925;-72
2023/09/17 10:24:00;;;;;;;25.48;7.68;;;32.10;60.00;;;;;;7401020;19;20043;-71
2023/09/17 10:26:32;;;;;;;20.70;8.02;;;31.90;59.20;;;;;;7399695;19;19922;-71
2023/09/17 10:29:00;;;;;;;22.65;7.65;;;32.20;60.00;;;;;;7395113;19;19919;-71
2023/09/17 10:31:26;;;;;;;24.83;8.07;;;32.00;59.40;;;;;;7395342;19;19942;-71
2023/09/17 10:33:53;;;;;;;24.58;7.95;;;32.00;59.40;;;;;;7399056;19;19915;-72
2023/09/17 10:36:19;;;;;;;22.92;5.75;;;31.80;59.80;;;;;;7398306;19;20725;-71
2023/09/17 10:38:46;;;;;;;;;;;31.80;59.20;;;;;;7401634;19;20346;-70
2023/09/17 10:41:13;;;;;;;28.20;8.10;;;31.70;59.60;;;;;;7398990;19;20502;-71
2023/09/17 10:43:42;;;;;;;24.17;9.05;;;31.80;59.30;;;;;;7393953;19;19922;-72
2023/09/17 10:46:10;;;;;;;22.42;7.88;;;32.10;57.10;;;;;;7396551;19;19929;-72
2023/09/17 10:48:38;;;;;;;26.40;8.50;;;32.20;57.30;;;;;;7396257;19;19922;-71
2023/09/17 10:51:03;;;;;;;28.50;8.23;;;32.90;56.40;;;;;;7399277;19;19927;-71
2023/09/17 10:53:30;;;;;;;27.30;8.90;;;33.00;55.60;;;;;;7392771;19;19986;-70
2023/09/17 10:56:06;;;;;;;23.13;8.10;;;33.00;55.50;;;;;;7390981;19;19922;-71
2023/09/17 10:58:44;;;;;;;24.50;6.72;;;33.10;54.50;;;;;;7401144;19;20275;-71
2023/09/17 11:01:14;;;;;;;;;;;33.30;53.50;;;;;;7401386;19;20309;-71
2023/09/17 11:03:44;;;;;;;18.92;7.07;;;33.60;52.80;;;;;;7394841;19;19922;-71
2023/09/17 11:06:23;;;;;;;28.85;7.75;;;33.80;51.70;;;;;;7397482;19;20253;-71
2023/09/17 11:08:56;;;;;;;26.58;8.32;;;33.90;49.80;;;;;;7399981;19;20400;-71
2023/09/17 11:11:28;;;;;;;28.42;8.63;;;34.10;49.60;;;;;;7377626;19;20388;-71
2023/09/17 11:13:54;;;;;;;22.85;7.85;;;34.30;50.60;;;;;;7393570;19;19943;-71
2023/09/17 11:16:23;;;;;;;28.92;8.77;;;34.20;50.70;;;;;;7398952;19;19926;-72
2023/09/17 11:19:21;;;;;;;31.65;9.27;;;34.30;49.90;;;;;;7395545;19;20487;-71
2023/09/17 11:22:03;;;;;;;22.88;7.75;;;34.60;48.30;;;;;;7397713;19;19922;-71
2023/09/17 11:24:32;;;;;;;26.80;8.23;;;34.90;46.60;;;;;;7402949;19;19998;-73
2023/09/17 11:27:01;;;;;;;21.52;6.70;;;35.00;46.90;;;;;;7395888;19;20367;-72
2023/09/17 11:29:40;;;;;;;28.27;8.73;;;35.00;47.00;;;;;;7403825;19;20613;-72
2023/09/17 11:32:06;;;;;;;26.67;9.20;;;35.10;45.30;;;;;;7393365;19;20260;-71
2023/09/17 11:34:35;;;;;;;29.17;8.73;;;35.20;45.10;;;;;;7390493;19;19926;-72
2023/09/17 11:37:04;;;;;;;30.83;8.32;;;35.10;44.90;;;;;;7400301;19;19923;-72
2023/09/17 11:39:32;;;;;;;25.90;8.82;;;35.10;44.50;;;;;;7393633;19;19922;-71
2023/09/17 11:42:05;;;;;;;30.25;10.63;;;35.40;44.50;;;;;;7396637;19;19939;-71
2023/09/17 11:44:36;;;;;;;24.67;8.75;;;35.70;44.90;;;;;;7395591;19;20821;-71
2023/09/17 11:47:05;;;;;;;28.02;8.38;;;35.90;44.20;;;;;;7397662;19;19931;-71
2023/09/17 11:49:32;;;;;;;23.35;8.73;;;35.80;42.80;;;;;;7389722;19;19982;-73
2023/09/17 11:51:59;;;;;;;26.83;8.48;;;35.70;43.00;;;;;;7396449;19;20303;-73
2023/09/17 11:54:33;;;;;;;25.90;8.70;;;35.90;42.20;;;;;;7400519;19;19919;-71
2023/09/17 11:57:00;;;;;;;29.05;8.23;;;35.80;42.40;;;;;;7391390;19;20259;-72
2023/09/17 11:59:26;;;;;;;24.05;9.43;;;36.10;42.90;;;;;;7394771;19;19918;-71
2023/09/17 12:01:57;;;;;;;26.15;8.55;;;36.00;42.80;;;;;;7397814;19;19930;-72
2023/09/17 12:04:28;;;;;;;26.30;8.13;;;36.20;42.30;;;;;;7391126;19;20386;-71
2023/09/17 12:06:55;;;;;;;28.58;8.38;;;36.20;42.00;;;;;;7390331;19;19926;-72
2023/09/17 12:09:49;;;;;;;26.30;8.23;;;36.10;41.90;;;;;;7400600;19;19922;-71
2023/09/17 12:12:19;;;;;;;24.05;7.03;;;36.20;41.30;;;;;;7398727;19;19973;-71
2023/09/17 12:14:49;;;;;;;22.65;8.18;;;36.50;41.10;;;;;;7399986;19;19922;-72
2023/09/17 12:17:16;;;;;;;26.45;7.22;;;36.10;40.40;;;;;;7395746;19;20616;-71
2023/09/17 12:19:43;;;;;;;25.50;7.25;;;36.50;39.30;;;;;;7401829;19;19923;-72
2023/09/17 12:22:09;;;;;;;25.75;9.52;;;36.20;39.90;;;;;;7401555;19;19918;-72
2023/09/17 12:24:37;;;;;;;28.05;7.47;;;36.30;38.80;;;;;;7400343;19;19938;-73
2023/09/17 12:29:58;;;;;;;30.17;9.02;;;36.90;37.40;;;;;;7403921;19;19935;-72
2023/09/17 12:32:29;;;;;;;22.67;8.48;;;36.90;37.10;;;;;;7400656;19;19945;-72
2023/09/17 12:34:56;;;;;;;28.65;8.55;;;37.10;36.40;;;;;;7390766;19;19918;-72
2023/09/17 12:37:23;;;;;;;23.80;8.25;;;37.30;35.60;;;;;;7397034;19;19939;-72
2023/09/17 12:39:52;;;;;;;31.50;7.32;;;37.30;35.20;;;;;;7399242;19;19919;-73
2023/09/17 12:42:20;;;;;;;30.27;8.65;;;37.10;34.60;;;;;;7401233;19;19942;-72
2023/09/17 12:44:46;;;;;;;25.33;6.70;;;37.10;33.50;;;;;;7389619;19;19918;-73